createdAt,value
2023-05-04T00:00:08.193Z,8.41
2023-05-04T00:02:36.782Z,8.37
2023-05-04T00:05:08.544Z,8.34
2023-05-04T00:07:36.885Z,8.31
2023-05-04T00:10:06.853Z,8.27
2023-05-04T00:12:35.521Z,8.25
2023-05-04T00:15:04.230Z,8.21
2023-05-04T00:17:33.608Z,8.17
2023-05-04T00:20:02.269Z,8.14
2023-05-04T00:22:33.439Z,8.10
2023-05-04T00:25:01.819Z,8.07
2023-05-04T00:27:30.325Z,8.05
2023-05-04T00:29:58.951Z,8.02
2023-05-04T00:32:29.106Z,7.97
2023-05-04T00:34:58.077Z,7.92
2023-05-04T00:37:29.968Z,7.90
2023-05-04T00:39:59.876Z,7.89
2023-05-04T00:42:28.763Z,7.85
2023-05-04T00:44:57.250Z,7.84
2023-05-04T00:47:27.587Z,7.82
2023-05-04T00:49:56.387Z,7.80
2023-05-04T00:52:28.758Z,7.78
2023-05-04T00:54:57.543Z,7.75
2023-05-04T00:57:28.082Z,7.75
2023-05-04T00:59:57.675Z,7.71
2023-05-04T01:02:27.072Z,7.69
2023-05-04T01:04:56.701Z,7.68
2023-05-04T01:07:34.469Z,7.66
2023-05-04T01:10:11.349Z,7.63
2023-05-04T01:12:47.461Z,7.60
2023-05-04T01:15:16.100Z,7.59
2023-05-04T01:17:44.540Z,7.56
2023-05-04T01:20:14.046Z,7.55
2023-05-04T01:22:44.378Z,7.53
2023-05-04T01:25:13.414Z,7.51
2023-05-04T01:27:48.297Z,7.47
2023-05-04T01:30:23.479Z,7.46
2023-05-04T01:32:54.370Z,7.46
2023-05-04T01:35:23.802Z,7.44
2023-05-04T01:37:53.894Z,7.42
2023-05-04T01:40:23.311Z,7.42
2023-05-04T01:42:52.324Z,7.41
2023-05-04T01:45:21.545Z,7.39
2023-05-04T01:47:50.864Z,7.37
2023-05-04T01:50:19.762Z,7.38
2023-05-04T01:52:48.251Z,7.38
2023-05-04T01:55:18.344Z,7.38
2023-05-04T01:57:47.115Z,7.37
2023-05-04T02:00:17.618Z,7.36
2023-05-04T02:02:46.182Z,7.37
2023-05-04T02:05:14.666Z,7.37
2023-05-04T02:07:43.288Z,7.36
2023-05-04T02:10:12.428Z,7.37
2023-05-04T02:12:43.130Z,7.36
2023-05-04T02:15:13.007Z,7.36
2023-05-04T02:17:41.615Z,7.37
2023-05-04T02:20:13.061Z,7.37
2023-05-04T02:22:41.518Z,7.38
2023-05-04T02:25:11.973Z,7.38
2023-05-04T02:27:41.877Z,7.39
2023-05-04T02:30:13.762Z,7.39
2023-05-04T02:32:42.411Z,7.38
2023-05-04T02:35:11.128Z,7.39
2023-05-04T02:37:39.798Z,7.40
2023-05-04T02:40:09.933Z,7.39
2023-05-04T02:42:38.394Z,7.40
2023-05-04T02:45:10.202Z,7.41
2023-05-04T02:47:39.410Z,7.40
2023-05-04T02:50:16.641Z,7.41
2023-05-04T02:52:45.633Z,7.42
2023-05-04T02:55:14.109Z,7.42
2023-05-04T02:57:42.912Z,7.43
2023-05-04T03:00:14.170Z,7.45
2023-05-04T03:02:42.657Z,7.44
2023-05-04T03:05:11.638Z,7.46
2023-05-04T03:07:40.253Z,7.47
2023-05-04T03:10:11.534Z,7.48
2023-05-04T03:12:39.951Z,7.49
2023-05-04T03:15:09.971Z,7.50
2023-05-04T03:17:39.890Z,7.52
2023-05-04T03:20:09.864Z,7.53
2023-05-04T03:22:38.990Z,7.54
2023-05-04T03:25:09.410Z,7.57
2023-05-04T03:27:37.972Z,7.57
2023-05-04T03:30:08.386Z,7.60
2023-05-04T03:32:37.003Z,7.61
2023-05-04T03:35:07.641Z,7.63
2023-05-04T03:37:36.230Z,7.64
2023-05-04T03:40:05.490Z,7.65
2023-05-04T03:42:34.086Z,7.65
2023-05-04T03:45:04.156Z,7.66
2023-05-04T03:47:32.958Z,7.67
2023-05-04T03:50:01.440Z,7.67
2023-05-04T03:52:31.474Z,7.67
2023-05-04T03:55:00.020Z,7.66
2023-05-04T03:57:31.482Z,7.66
2023-05-04T04:00:00.591Z,7.68
2023-05-04T04:02:29.258Z,7.68
2023-05-04T04:04:58.356Z,7.69
2023-05-04T04:07:27.557Z,7.70
2023-05-04T04:09:57.564Z,7.71
2023-05-04T04:12:26.559Z,7.73
2023-05-04T04:14:56.340Z,7.76
2023-05-04T04:17:26.284Z,7.77
2023-05-04T04:19:54.887Z,7.79
2023-05-04T04:22:23.606Z,7.81
2023-05-04T04:24:56.598Z,7.83
2023-05-04T04:27:25.767Z,7.86
2023-05-04T04:29:55.044Z,7.87
2023-05-04T04:32:24.786Z,7.90
2023-05-04T04:34:53.995Z,7.93
2023-05-04T04:37:22.993Z,7.94
2023-05-04T04:39:53.996Z,7.94
2023-05-04T04:42:24.296Z,7.96
2023-05-04T04:44:55.753Z,7.97
2023-05-04T04:47:27.470Z,7.99
2023-05-04T04:49:56.900Z,8.01
2023-05-04T04:52:26.169Z,8.04
2023-05-04T04:54:55.009Z,8.06
2023-05-04T04:57:24.999Z,8.07
2023-05-04T04:59:58.226Z,8.11
2023-05-04T05:02:28.417Z,8.13
2023-05-04T05:04:57.498Z,8.18
2023-05-04T05:07:26.179Z,8.22
2023-05-04T05:09:57.556Z,8.26
2023-05-04T05:12:28.290Z,8.31
2023-05-04T05:14:57.435Z,8.37
2023-05-04T05:17:28.245Z,8.41
2023-05-04T05:19:57.896Z,8.47
2023-05-04T05:22:29.342Z,8.53
2023-05-04T05:24:59.619Z,8.61
2023-05-04T05:27:32.750Z,8.66
2023-05-04T05:30:02.557Z,8.72
2023-05-04T05:32:32.480Z,8.82
2023-05-04T05:35:01.098Z,8.89
2023-05-04T05:37:32.750Z,8.98
2023-05-04T05:40:01.197Z,9.08
2023-05-04T05:42:33.712Z,9.16
2023-05-04T05:45:04.707Z,9.24
2023-05-04T05:47:37.665Z,9.32
2023-05-04T05:50:08.789Z,9.42
2023-05-04T05:52:37.301Z,9.51
2023-05-04T05:55:12.315Z,9.58
2023-05-04T05:57:42.303Z,9.62
2023-05-04T06:00:12.778Z,9.68
2023-05-04T06:02:41.492Z,9.74
2023-05-04T06:05:11.386Z,9.86
2023-05-04T06:07:41.256Z,9.98
2023-05-04T06:10:10.839Z,10.07
2023-05-04T06:12:39.421Z,10.13
2023-05-04T06:15:11.990Z,10.16
2023-05-04T06:17:43.608Z,10.19
2023-05-04T06:20:13.072Z,10.26
2023-05-04T06:22:41.574Z,10.36
2023-05-04T06:25:11.554Z,10.45
2023-05-04T06:27:39.992Z,10.55
2023-05-04T06:30:11.429Z,10.65
2023-05-04T06:32:39.945Z,10.73
2023-05-04T06:35:10.607Z,10.81
2023-05-04T06:37:39.015Z,10.93
2023-05-04T06:40:10.332Z,11.05
2023-05-04T06:42:40.722Z,11.15
2023-05-04T06:45:11.966Z,11.26
2023-05-04T06:47:40.383Z,11.38
2023-05-04T06:50:10.578Z,11.51
2023-05-04T06:52:41.787Z,11.63
2023-05-04T06:55:10.862Z,11.73
2023-05-04T06:57:39.180Z,11.86
2023-05-04T07:00:11.369Z,11.97
2023-05-04T07:02:39.790Z,12.02
2023-05-04T07:05:09.157Z,12.09
2023-05-04T07:07:37.549Z,12.13
2023-05-04T07:10:07.264Z,12.17
2023-05-04T07:12:35.795Z,12.23
2023-05-04T07:15:04.621Z,12.30
2023-05-04T07:17:34.662Z,12.38
2023-05-04T07:20:04.638Z,12.46
2023-05-04T07:22:33.476Z,12.59
2023-05-04T07:25:02.481Z,12.75
2023-05-04T07:27:31.448Z,12.92
2023-05-04T07:29:59.827Z,13.09
2023-05-04T07:32:28.347Z,13.19
2023-05-04T07:34:58.085Z,13.31
2023-05-04T07:37:27.273Z,13.46
2023-05-04T07:39:56.336Z,13.59
2023-05-04T07:42:24.940Z,13.64
2023-05-04T07:44:54.470Z,13.74
2023-05-04T07:47:24.530Z,13.83
2023-05-04T07:49:53.822Z,13.91
2023-05-04T07:52:23.642Z,14.05
2023-05-04T07:54:54.092Z,14.18
2023-05-04T07:57:23.135Z,14.29
2023-05-04T07:59:55.992Z,14.44
2023-05-04T08:02:26.483Z,14.63
2023-05-04T08:04:55.167Z,14.78
2023-05-04T08:07:28.166Z,14.95
2023-05-04T08:09:57.326Z,15.12
2023-05-04T08:12:27.099Z,15.27
2023-05-04T08:14:55.836Z,15.42
2023-05-04T08:17:25.182Z,15.52
2023-05-04T08:19:54.261Z,15.61
2023-05-04T08:22:25.540Z,15.73
2023-05-04T08:24:54.058Z,15.85
2023-05-04T08:27:23.342Z,15.97
2023-05-04T08:29:52.750Z,16.08
2023-05-04T08:32:21.275Z,16.22
2023-05-04T08:34:50.931Z,16.38
2023-05-04T08:37:20.203Z,16.60
2023-05-04T08:39:50.001Z,16.79
2023-05-04T08:42:29.406Z,16.88
2023-05-04T08:45:03.860Z,17.00
2023-05-04T08:47:32.593Z,17.20
2023-05-04T08:50:01.196Z,17.46
2023-05-04T08:52:30.537Z,17.63
2023-05-04T08:55:03.848Z,17.72
2023-05-04T08:57:36.214Z,17.79
2023-05-04T09:00:06.005Z,17.91
2023-05-04T09:02:36.032Z,18.02
2023-05-04T09:05:08.105Z,18.11
2023-05-04T09:07:36.637Z,18.28
2023-05-04T09:10:07.993Z,18.52
2023-05-04T09:12:37.983Z,18.66
2023-05-04T09:15:17.757Z,18.83
2023-05-04T09:17:58.328Z,19.01
2023-05-04T09:20:27.535Z,19.15
2023-05-04T09:23:07.250Z,19.24
2023-05-04T09:25:48.477Z,19.35
2023-05-04T09:28:18.620Z,19.41
2023-05-04T09:30:48.956Z,19.49
2023-05-04T09:33:17.886Z,19.61
2023-05-04T09:35:46.386Z,19.75
2023-05-04T09:38:27.607Z,19.91
2023-05-04T09:40:58.080Z,19.99
2023-05-04T09:43:27.433Z,19.97
2023-05-04T09:45:56.388Z,19.99
2023-05-04T09:48:29.362Z,20.03
2023-05-04T09:51:00.628Z,20.07
2023-05-04T09:53:31.109Z,20.17
2023-05-04T09:56:12.274Z,20.17
2023-05-04T09:58:41.352Z,20.20
2023-05-04T10:01:11.174Z,20.27
2023-05-04T10:03:39.924Z,20.34
2023-05-04T10:06:09.433Z,20.40
2023-05-04T10:08:38.801Z,20.46
2023-05-04T10:11:09.930Z,20.53
2023-05-04T10:13:39.211Z,20.52
2023-05-04T10:16:29.273Z,20.53
2023-05-04T10:19:26.647Z,20.66
2023-05-04T10:22:13.645Z,20.77
2023-05-04T10:25:28.208Z,20.76
2023-05-04T10:28:16.667Z,20.76
2023-05-04T10:30:45.608Z,20.76
2023-05-04T10:33:14.393Z,20.81
2023-05-04T10:35:53.236Z,20.92
2023-05-04T10:38:33.212Z,21.01
2023-05-04T10:41:01.675Z,21.15
2023-05-04T10:43:32.660Z,21.23
2023-05-04T10:46:02.590Z,21.32
2023-05-04T10:48:37.429Z,21.48
2023-05-04T10:51:06.678Z,21.64
2023-05-04T10:53:35.586Z,21.85
2023-05-04T10:56:04.360Z,22.04
2023-05-04T10:58:34.429Z,22.22
2023-05-04T11:01:13.565Z,22.39
2023-05-04T11:03:43.920Z,22.44
2023-05-04T11:06:23.369Z,22.46
2023-05-04T11:09:02.188Z,22.54
2023-05-04T11:11:31.296Z,22.59
2023-05-04T11:14:01.708Z,22.61
2023-05-04T11:16:30.247Z,22.65
2023-05-04T11:19:09.652Z,22.75
2023-05-04T11:21:39.399Z,22.81
2023-05-04T11:24:08.965Z,22.81
2023-05-04T11:26:49.432Z,22.92
2023-05-04T11:29:20.646Z,23.13
2023-05-04T11:31:58.382Z,23.33
2023-05-04T11:34:28.071Z,23.46
2023-05-04T11:36:57.516Z,23.61
2023-05-04T11:39:28.084Z,23.74
2023-05-04T11:42:01.141Z,23.84
2023-05-04T11:44:34.377Z,23.90
2023-05-04T11:47:03.357Z,23.93
2023-05-04T11:49:32.519Z,23.91
2023-05-04T11:52:08.120Z,24.12
2023-05-04T11:54:37.077Z,24.30
2023-05-04T11:57:05.776Z,24.58
2023-05-04T11:59:35.781Z,24.92
2023-05-04T12:02:04.592Z,25.16
2023-05-04T12:04:33.543Z,25.45
2023-05-04T12:07:08.247Z,25.78
2023-05-04T12:09:46.564Z,26.20
2023-05-04T12:12:17.364Z,26.50
2023-05-04T12:14:52.640Z,26.79
2023-05-04T12:17:21.631Z,27.17
2023-05-04T12:19:52.687Z,27.53
2023-05-04T12:22:29.654Z,27.90
2023-05-04T12:25:00.199Z,28.11
2023-05-04T12:27:29.716Z,28.47
2023-05-04T12:29:59.635Z,28.87
2023-05-04T12:32:29.262Z,29.26
2023-05-04T12:35:00.851Z,29.57
2023-05-04T12:37:29.213Z,29.75
2023-05-04T12:40:02.442Z,29.98
2023-05-04T12:42:32.070Z,30.24
2023-05-04T12:45:01.854Z,30.44
2023-05-04T12:47:30.371Z,30.53
2023-05-04T12:49:59.939Z,30.54
2023-05-04T12:52:28.577Z,30.46
2023-05-04T12:54:57.170Z,30.55
2023-05-04T12:57:26.437Z,30.76
2023-05-04T12:59:55.227Z,31.14
2023-05-04T13:02:30.665Z,31.50
2023-05-04T13:04:59.012Z,31.86
2023-05-04T13:07:27.822Z,32.24
2023-05-04T13:09:56.408Z,32.37
2023-05-04T13:12:26.252Z,32.52
2023-05-04T13:14:56.891Z,32.61
2023-05-04T13:17:27.643Z,32.84
2023-05-04T13:19:56.577Z,33.30
2023-05-04T13:22:25.341Z,33.65
2023-05-04T13:24:54.050Z,33.65
2023-05-04T13:27:22.965Z,33.55
2023-05-04T13:29:51.578Z,33.63
2023-05-04T13:32:20.449Z,33.85
2023-05-04T13:34:50.505Z,34.01
2023-05-04T13:37:19.243Z,33.88
2023-05-04T13:39:47.852Z,33.63
2023-05-04T13:42:16.460Z,33.72
2023-05-04T13:44:45.696Z,33.48
2023-05-04T13:47:15.135Z,33.63
2023-05-04T13:49:43.798Z,33.82
2023-05-04T13:52:14.150Z,33.87
2023-05-04T13:54:42.777Z,34.02
2023-05-04T13:57:16.495Z,34.15
2023-05-04T13:59:54.881Z,34.26
2023-05-04T14:02:33.883Z,34.35
2023-05-04T14:05:02.760Z,34.32
2023-05-04T14:07:32.670Z,34.45
2023-05-04T14:10:01.348Z,34.70
2023-05-04T14:12:29.940Z,34.86
2023-05-04T14:14:59.165Z,34.73
2023-05-04T14:17:27.954Z,35.06
2023-05-04T14:19:59.035Z,35.39
2023-05-04T14:22:27.750Z,35.07
2023-05-04T14:24:57.777Z,34.36
2023-05-04T14:27:27.502Z,34.36
2023-05-04T14:29:58.116Z,34.34
2023-05-04T14:32:26.684Z,34.18
2023-05-04T14:35:01.977Z,33.50
2023-05-04T14:37:30.705Z,32.70
2023-05-04T14:40:01.233Z,31.95
2023-05-04T14:42:29.712Z,31.38
2023-05-04T14:44:58.452Z,31.04
2023-05-04T14:47:27.645Z,31.09
2023-05-04T14:49:57.432Z,31.28
2023-05-04T14:52:27.687Z,31.68
2023-05-04T14:54:56.465Z,31.73
2023-05-04T14:57:26.625Z,31.50
2023-05-04T14:59:56.222Z,31.04
2023-05-04T15:02:24.895Z,30.70
2023-05-04T15:04:55.412Z,30.46
2023-05-04T15:07:23.764Z,30.30
2023-05-04T15:09:52.610Z,30.21
2023-05-04T15:12:21.511Z,30.06
2023-05-04T15:15:03.757Z,29.74
2023-05-04T15:17:32.565Z,29.72
2023-05-04T15:20:02.418Z,29.83
2023-05-04T15:22:34.037Z,29.92
2023-05-04T15:25:03.587Z,30.13
2023-05-04T15:27:32.410Z,30.80
2023-05-04T15:30:02.365Z,31.44
2023-05-04T15:32:30.941Z,31.83
2023-05-04T15:35:05.152Z,32.10
2023-05-04T15:37:35.066Z,32.66
2023-05-04T15:40:04.732Z,33.15
2023-05-04T15:42:33.671Z,33.70
2023-05-04T15:45:04.084Z,34.12
2023-05-04T15:47:36.465Z,34.73
2023-05-04T15:50:06.761Z,35.31
2023-05-04T15:52:35.822Z,35.74
2023-05-04T15:55:16.411Z,35.95
2023-05-04T15:57:54.482Z,36.00
2023-05-04T16:00:26.415Z,35.45
2023-05-04T16:02:55.960Z,34.37
2023-05-04T16:05:26.251Z,33.73
2023-05-04T16:07:55.432Z,33.74
2023-05-04T16:10:24.137Z,33.93
2023-05-04T16:12:53.756Z,33.84
2023-05-04T16:15:22.791Z,33.34
2023-05-04T16:17:52.772Z,32.68
2023-05-04T16:20:21.810Z,31.99
2023-05-04T16:22:50.260Z,31.47
2023-05-04T16:25:20.573Z,30.95
2023-05-04T16:27:51.051Z,30.58
2023-05-04T16:30:21.951Z,30.18
2023-05-04T16:32:51.869Z,29.62
2023-05-04T16:35:24.089Z,29.10
2023-05-04T16:37:53.198Z,28.84
2023-05-04T16:40:26.298Z,28.71
2023-05-04T16:42:55.195Z,28.39
2023-05-04T16:45:25.600Z,28.00
2023-05-04T16:47:58.142Z,27.56
2023-05-04T16:50:27.488Z,27.19
2023-05-04T16:52:57.189Z,26.76
2023-05-04T16:55:28.263Z,26.23
2023-05-04T16:57:58.696Z,25.80
2023-05-04T17:00:27.827Z,25.43
2023-05-04T17:03:14.413Z,25.15
2023-05-04T17:05:43.240Z,24.98
2023-05-04T17:08:12.616Z,24.67
2023-05-04T17:10:41.196Z,24.35
2023-05-04T17:13:09.946Z,24.13
2023-05-04T17:15:38.392Z,23.92
2023-05-04T17:18:08.326Z,23.70
2023-05-04T17:20:36.793Z,23.48
2023-05-04T17:23:05.326Z,23.24
2023-05-04T17:25:34.121Z,23.06
2023-05-04T17:28:03.487Z,22.88
2023-05-04T17:30:33.731Z,22.69
2023-05-04T17:33:02.243Z,22.51
2023-05-04T17:35:32.311Z,22.34
2023-05-04T17:38:01.263Z,22.18
2023-05-04T17:40:30.557Z,22.05
2023-05-04T17:43:00.305Z,21.95
2023-05-04T17:45:29.258Z,21.85
2023-05-04T17:47:58.393Z,21.73
2023-05-04T17:50:38.867Z,21.59
2023-05-04T17:53:07.522Z,21.47
2023-05-04T17:55:36.338Z,21.30
2023-05-04T17:58:04.877Z,21.16
2023-05-04T18:00:33.626Z,21.03
2023-05-04T18:03:01.988Z,20.93
2023-05-04T18:05:36.880Z,20.82
2023-05-04T18:08:05.958Z,20.71
2023-05-04T18:10:34.412Z,20.57
2023-05-04T18:13:02.812Z,20.45
2023-05-04T18:15:31.299Z,20.33
2023-05-04T18:18:00.506Z,20.25
2023-05-04T18:20:29.323Z,20.17
2023-05-04T18:22:59.092Z,20.13
2023-05-04T18:25:28.476Z,20.04
2023-05-04T18:27:58.756Z,19.90
2023-05-04T18:30:27.987Z,19.76
2023-05-04T18:32:56.887Z,19.63
2023-05-04T18:35:25.465Z,19.49
2023-05-04T18:37:53.849Z,19.34
2023-05-04T18:40:24.478Z,19.21
2023-05-04T18:42:52.940Z,19.06
2023-05-04T18:45:21.727Z,18.91
2023-05-04T18:47:50.447Z,18.77
2023-05-04T18:50:19.664Z,18.63
2023-05-04T18:52:48.780Z,18.49
2023-05-04T18:55:17.355Z,18.36
2023-05-04T18:57:47.208Z,18.22
2023-05-04T19:00:16.372Z,18.08
2023-05-04T19:02:45.038Z,17.96
2023-05-04T19:05:14.733Z,17.83
2023-05-04T19:07:43.350Z,17.70
2023-05-04T19:10:12.318Z,17.58
2023-05-04T19:12:40.720Z,17.47
2023-05-04T19:15:11.643Z,17.36
2023-05-04T19:17:40.122Z,17.25
2023-05-04T19:20:10.456Z,17.16
2023-05-04T19:22:39.072Z,17.03
2023-05-04T19:25:12.245Z,16.94
2023-05-04T19:27:44.032Z,16.82
2023-05-04T19:30:14.328Z,16.73
2023-05-04T19:32:43.203Z,16.64
2023-05-04T19:35:11.656Z,16.56
2023-05-04T19:37:39.975Z,16.45
2023-05-04T19:40:10.354Z,16.39
2023-05-04T19:42:39.977Z,16.30
2023-05-04T19:45:10.301Z,16.22
2023-05-04T19:47:40.295Z,16.14
2023-05-04T19:50:14.077Z,16.08
2023-05-04T19:52:43.004Z,16.01
2023-05-04T19:55:11.890Z,15.95
2023-05-04T19:57:40.821Z,15.88
2023-05-04T20:00:11.022Z,15.81
2023-05-04T20:02:41.039Z,15.73
2023-05-04T20:05:09.876Z,15.67
2023-05-04T20:07:38.294Z,15.61
2023-05-04T20:10:08.376Z,15.56
2023-05-04T20:12:37.283Z,15.49
2023-05-04T20:15:06.921Z,15.44
2023-05-04T20:17:35.307Z,15.39
2023-05-04T20:20:06.849Z,15.33
2023-05-04T20:22:35.528Z,15.29
2023-05-04T20:25:04.133Z,15.24
2023-05-04T20:27:32.613Z,15.20
2023-05-04T20:30:01.237Z,15.15
2023-05-04T20:32:31.234Z,15.12
2023-05-04T20:34:59.616Z,15.09
2023-05-04T20:37:29.889Z,15.06
2023-05-04T20:39:58.795Z,15.02
2023-05-04T20:42:28.516Z,15.00
2023-05-04T20:44:56.983Z,14.98
2023-05-04T20:47:26.822Z,14.97
2023-05-04T20:49:55.569Z,14.96
2023-05-04T20:52:25.163Z,14.93
2023-05-04T20:54:56.566Z,14.93
2023-05-04T20:57:25.481Z,14.91
2023-05-04T20:59:54.550Z,14.89
2023-05-04T21:02:23.942Z,14.86
2023-05-04T21:04:52.914Z,14.83
2023-05-04T21:07:21.966Z,14.81
2023-05-04T21:09:50.403Z,14.77
2023-05-04T21:12:20.769Z,14.74
2023-05-04T21:14:49.207Z,14.71
2023-05-04T21:17:17.746Z,14.68
2023-05-04T21:19:46.241Z,14.65
2023-05-04T21:22:17.726Z,14.64
2023-05-04T21:24:47.354Z,14.61
2023-05-04T21:27:15.778Z,14.56
2023-05-04T21:29:45.571Z,14.53
2023-05-04T21:32:14.498Z,14.51
2023-05-04T21:34:43.009Z,14.49
2023-05-04T21:37:11.480Z,14.45
2023-05-04T21:39:40.170Z,14.41
2023-05-04T21:42:09.243Z,14.39
2023-05-04T21:44:37.691Z,14.37
2023-05-04T21:47:07.784Z,14.35
2023-05-04T21:49:36.183Z,14.34
2023-05-04T21:52:04.822Z,14.32
2023-05-04T21:54:33.251Z,14.30
2023-05-04T21:57:01.566Z,14.27
2023-05-04T21:59:30.257Z,14.25
2023-05-04T22:01:58.613Z,14.24
2023-05-04T22:04:28.660Z,14.24
2023-05-04T22:06:58.133Z,14.23
2023-05-04T22:09:26.622Z,14.22
2023-05-04T22:11:55.990Z,14.22
2023-05-04T22:14:24.548Z,14.21
2023-05-04T22:16:53.491Z,14.20
2023-05-04T22:19:21.909Z,14.19
2023-05-04T22:21:51.676Z,14.19
2023-05-04T22:24:20.216Z,14.19
2023-05-04T22:26:48.719Z,14.17
2023-05-04T22:29:17.164Z,14.17
2023-05-04T22:31:45.510Z,14.16
2023-05-04T22:34:14.038Z,14.14
2023-05-04T22:36:42.417Z,14.14
2023-05-04T22:39:12.407Z,14.11
2023-05-04T22:41:41.137Z,14.09
2023-05-04T22:44:09.664Z,14.06
2023-05-04T22:46:38.168Z,14.02
2023-05-04T22:49:06.759Z,13.98
2023-05-04T22:51:35.251Z,13.93
2023-05-04T22:54:03.930Z,13.89
2023-05-04T22:56:34.145Z,13.82
2023-05-04T22:59:02.774Z,13.77
2023-05-04T23:01:32.410Z,13.71
2023-05-04T23:04:00.921Z,13.65
2023-05-04T23:06:29.536Z,13.57
2023-05-04T23:08:58.606Z,13.49
2023-05-04T23:11:27.229Z,13.42
2023-05-04T23:13:57.069Z,13.35
2023-05-04T23:16:25.897Z,13.29
2023-05-04T23:18:55.055Z,13.23
2023-05-04T23:21:24.750Z,13.17
2023-05-04T23:23:53.525Z,13.11
2023-05-04T23:26:22.470Z,13.07
2023-05-04T23:28:51.108Z,13.03
2023-05-04T23:31:21.645Z,13.00
2023-05-04T23:33:50.135Z,13.00
2023-05-04T23:36:20.514Z,13.00
2023-05-04T23:38:49.822Z,13.00
2023-05-04T23:41:18.563Z,13.01
2023-05-04T23:43:47.122Z,13.03
2023-05-04T23:46:20.176Z,13.02
2023-05-04T23:48:51.628Z,13.04
2023-05-04T23:51:21.640Z,13.01
2023-05-04T23:53:50.338Z,12.99
2023-05-04T23:56:19.044Z,12.94
2023-05-04T23:58:47.727Z,12.89
